Time;durP1;ratioP1;P1;durP2;ratioP2;P2;SDS_P1;SDS_P2;PMS_P1;PMS_P2;Temp;Humidity;BMP_temperature;BMP_pressure;BME280_temperature;BME280_humidity;BME280_pressure;Samples;Min_cycle;Max_cycle;Signal;HPM_P1;HPM_P2
2022/10/25 00:00:58;;;;;;;26.70;16.03;;;;;;;13.23;74.47;100699.07;126276;1086;102812;-75
2022/10/25 00:03:31;;;;;;;;;;;;;;;13.21;73.92;100691.13;126835;1086;104359;-75
2022/10/25 00:05:59;;;;;;;28.77;17.03;;;;;;;13.21;74.16;100691.13;126366;1086;104181;-75
2022/10/25 00:08:28;;;;;;;30.73;17.47;;;;;;;13.20;74.59;100685.81;126285;1086;102658;-75
2022/10/25 00:10:56;;;;;;;30.33;18.47;;;;;;;13.19;75.17;100684.92;126234;1086;104162;-75
2022/10/25 00:13:25;;;;;;;28.87;18.37;;;;;;;13.18;75.05;100677.86;126317;1086;104228;-75
2022/10/25 00:15:53;;;;;;;30.13;17.23;;;;;;;13.16;74.99;100676.05;126340;1086;104223;-74
2022/10/25 00:18:21;;;;;;;29.27;17.30;;;;;;;13.15;75.18;100674.26;126316;1086;104159;-75
2022/10/25 00:20:50;;;;;;;28.73;18.00;;;;;;;13.14;75.02;100673.38;126286;1086;104162;-75
2022/10/25 00:23:18;;;;;;;28.47;17.67;;;;;;;13.13;75.15;100669.86;126319;1086;104361;-76
2022/10/25 00:25:47;;;;;;;29.90;16.73;;;;;;;13.13;74.95;100666.31;126307;1086;104263;-75
2022/10/25 00:28:15;;;;;;;28.90;17.67;;;;;;;13.12;75.17;100657.52;126294;1085;103569;-75
2022/10/25 00:30:43;;;;;;;30.80;17.37;;;;;;;13.13;75.71;100653.14;126343;1086;104257;-75
2022/10/25 00:33:12;;;;;;;28.00;17.30;;;;;;;13.13;75.71;100639.97;126336;1086;104187;-75
2022/10/25 00:35:40;;;;;;;27.20;16.77;;;;;;;13.11;75.43;100639.04;126292;1086;104190;-75
2022/10/25 00:38:08;;;;;;;26.80;16.33;;;;;;;13.11;75.31;100639.04;126315;1086;104231;-74
2022/10/25 00:40:37;;;;;;;27.67;16.83;;;;;;;13.09;75.73;100644.27;126256;1086;102936;-75
2022/10/25 00:43:08;;;;;;;27.00;17.53;;;;;;;13.07;75.47;100637.16;126350;1085;102831;-76
2022/10/25 00:45:36;;;;;;;27.40;16.90;;;;;;;13.04;75.82;100632.72;126392;1086;104281;-75
2022/10/25 00:48:10;;;;;;;26.63;16.80;;;;;;;13.04;75.89;100643.26;126299;1085;104612;-75
2022/10/25 00:50:47;;;;;;;29.60;16.70;;;;;;;13.03;75.52;100645.84;126283;1086;104194;-75
2022/10/25 00:53:19;;;;;;;28.10;16.90;;;;;;;13.02;75.76;100641.42;126334;1086;104165;-75
2022/10/25 00:55:55;;;;;;;27.20;17.60;;;;;;;12.99;76.44;100643.97;126325;1086;104162;-75
2022/10/25 00:58:27;;;;;;;28.60;16.87;;;;;;;12.94;76.12;100643.84;126321;1086;104159;-76
2022/10/25 01:00:56;;;;;;;24.47;16.17;;;;;;;12.93;75.93;100645.59;126272;1086;104344;-74
2022/10/25 01:03:25;;;;;;;26.70;17.27;;;;;;;12.92;75.97;100638.52;126306;1086;104340;-76
2022/10/25 01:05:54;;;;;;;26.93;16.43;;;;;;;12.91;76.20;100634.09;126257;1086;104796;-75
2022/10/25 01:08:23;;;;;;;29.30;16.57;;;;;;;12.91;76.18;100634.09;126340;1086;102799;-76
2022/10/25 01:10:52;;;;;;;26.70;15.93;;;;;;;12.89;76.27;100633.17;126271;1086;104354;-75
2022/10/25 01:13:20;;;;;;;28.00;16.93;;;;;;;12.89;76.69;100621.75;126288;1086;104209;-75
2022/10/25 01:15:57;;;;;;;29.70;16.70;;;;;;;12.88;76.86;100625.22;126382;1086;104162;-75
2022/10/25 01:18:35;;;;;;;27.47;15.57;;;;;;;12.87;76.40;100621.70;126297;1085;104168;-75
2022/10/25 01:21:32;;;;;;;27.70;15.80;;;;;;;12.86;77.12;100624.30;126264;1086;104217;-76
2022/10/25 01:24:20;;;;;;;29.00;17.23;;;;;;;12.86;76.43;100622.55;125945;1089;104359;-75
2022/10/25 01:27:36;;;;;;;26.20;15.93;;;;;;;12.86;76.50;100617.28;126279;1086;104231;-75
2022/10/25 01:30:18;;;;;;;27.20;15.27;;;;;;;12.86;76.95;100626.94;125847;1089;104354;-76
2022/10/25 01:32:56;;;;;;;28.37;15.87;;;;;;;12.84;77.00;100633.87;126253;1086;104146;-76
2022/10/25 01:35:30;;;;;;;30.40;16.97;;;;;;;12.81;77.19;100634.70;126327;1086;102163;-75
2022/10/25 01:38:13;;;;;;;28.52;16.48;;;;;;;12.81;77.09;100633.78;125910;1086;102270;-75
2022/10/25 01:40:52;;;;;;;28.13;16.13;;;;;;;12.82;77.03;100630.31;126271;1086;104187;-74
2022/10/25 01:43:30;;;;;;;28.07;15.70;;;;;;;12.83;77.24;100626.84;126292;1087;104153;-76
2022/10/25 01:46:07;;;;;;;28.30;16.40;;;;;;;12.83;77.08;100619.83;126005;1089;102837;-75
2022/10/25 01:48:41;;;;;;;26.37;15.70;;;;;;;12.83;77.57;100617.19;126324;1086;102398;-75
2022/10/25 01:51:13;;;;;;;26.30;15.55;;;;;;;12.84;77.59;100625.97;126349;1086;104158;-75
2022/10/25 01:53:50;;;;;;;27.23;15.93;;;;;;;12.83;77.84;100625.09;126241;1086;104313;-76
2022/10/25 01:56:27;;;;;;;27.47;16.10;;;;;;;12.83;77.48;100613.67;126277;1086;102847;-76
2022/10/25 01:59:23;;;;;;;26.13;15.37;;;;;;;12.81;77.19;100610.09;126282;1084;104228;-75
2022/10/25 02:02:05;;;;;;;27.87;15.33;;;;;;;12.79;77.32;100606.53;126247;1086;102911;-75
2022/10/25 02:04:46;;;;;;;28.60;15.93;;;;;;;12.75;77.79;100608.20;126330;1085;104312;-75
2022/10/25 02:07:22;;;;;;;27.63;15.57;;;;;;;12.71;77.71;100603.67;126270;1086;104285;-75
2022/10/25 02:09:59;;;;;;;27.67;15.67;;;;;;;12.71;77.89;100611.58;126295;1086;104287;-76
2022/10/25 02:12:32;;;;;;;27.23;16.57;;;;;;;12.63;77.78;100585.02;126283;1086;102255;-75
2022/10/25 02:15:10;;;;;;;28.57;16.25;;;;;;;12.72;77.83;100597.58;126332;1086;104165;-74
2022/10/25 02:17:45;;;;;;;27.27;16.03;;;;;;;12.74;78.04;100595.87;125919;1088;104261;-76
2022/10/25 02:20:18;;;;;;;27.37;15.47;;;;;;;12.73;77.91;100596.70;126190;1086;102401;-75
2022/10/25 02:22:47;;;;;;;27.77;16.47;;;;;;;12.72;78.32;100598.45;126295;1086;104260;-75
2022/10/25 02:25:17;;;;;;;26.63;14.93;;;;;;;12.71;77.82;100596.66;125894;1089;104216;-75
2022/10/25 02:27:49;;;;;;;25.57;15.40;;;;;;;12.74;78.12;100607.28;126376;1086;104242;-76
2022/10/25 02:30:18;;;;;;;27.30;15.93;;;;;;;12.74;78.28;100596.75;126307;1086;104187;-75
2022/10/25 02:32:47;;;;;;;25.57;15.50;;;;;;;12.76;77.90;100602.97;126251;1086;104063;-75
2022/10/25 02:35:18;;;;;;;28.53;16.83;;;;;;;12.77;78.75;100603.85;126243;1086;102898;-75
2022/10/25 02:37:46;;;;;;;27.67;15.87;;;;;;;12.77;78.40;100601.22;126330;1086;104222;-75
2022/10/25 02:40:15;;;;;;;26.67;16.50;;;;;;;12.77;78.75;100611.75;126321;1086;104162;-76
2022/10/25 02:42:43;;;;;;;29.30;16.53;;;;;;;12.75;78.30;100609.08;126347;1086;104153;-76
2022/10/25 02:45:12;;;;;;;27.13;16.13;;;;;;;12.74;78.49;100609.91;126312;1086;104675;-76
2022/10/25 02:47:40;;;;;;;29.53;16.57;;;;;;;12.73;78.75;100608.15;126397;1086;104085;-75
2022/10/25 02:50:09;;;;;;;27.73;16.97;;;;;;;12.73;78.75;100600.25;126229;1085;102853;-77
2022/10/25 02:52:38;;;;;;;29.13;17.30;;;;;;;12.73;78.59;100600.25;126282;1086;104356;-76
2022/10/25 02:55:08;;;;;;;27.80;17.37;;;;;;;12.72;78.90;100598.45;126334;1086;104188;-75
2022/10/25 02:57:37;;;;;;;27.33;17.17;;;;;;;12.71;79.03;100599.30;126310;1086;103566;-76
2022/10/25 03:00:09;;;;;;;31.83;17.87;;;;;;;12.68;78.83;100587.79;126380;1086;104168;-76
2022/10/25 03:02:37;;;;;;;31.97;18.97;;;;;;;12.63;78.89;100586.78;126345;1086;104637;-75
2022/10/25 03:05:07;;;;;;;32.90;19.33;;;;;;;12.56;78.78;100583.97;126348;1086;104225;-75
2022/10/25 03:07:36;;;;;;;32.30;20.10;;;;;;;12.51;79.32;100592.56;126333;1086;104159;-75
2022/10/25 03:10:06;;;;;;;31.93;20.13;;;;;;;12.47;79.35;100590.72;126275;1086;104287;-77
2022/10/25 03:12:35;;;;;;;31.67;20.47;;;;;;;12.44;79.23;100595.89;126366;1086;102369;-75
2022/10/25 03:15:05;;;;;;;34.75;21.45;;;;;;;12.43;79.50;100594.97;126269;1086;104235;-75
2022/10/25 03:17:33;;;;;;;36.53;22.93;;;;;;;12.40;79.33;100593.16;126262;1086;104226;-76
2022/10/25 03:20:02;;;;;;;37.70;23.25;;;;;;;12.38;79.80;100592.20;126378;1086;104244;-76
2022/10/25 03:22:30;;;;;;;36.13;22.53;;;;;;;12.37;79.49;100593.07;126276;1086;102212;-76
2022/10/25 03:24:59;;;;;;;37.17;23.83;;;;;;;12.33;79.61;100583.28;126336;1086;104168;-75
2022/10/25 03:27:27;;;;;;;39.77;24.37;;;;;;;12.32;79.78;100580.61;126329;1086;104245;-76
2022/10/25 03:29:55;;;;;;;39.00;24.07;;;;;;;12.31;80.05;100586.70;126330;1086;104203;-75
2022/10/25 03:32:24;;;;;;;38.90;23.63;;;;;;;12.27;79.89;100584.85;126350;1086;104153;-76
2022/10/25 03:34:52;;;;;;;37.97;23.37;;;;;;;12.27;80.04;100582.22;126293;1086;104034;-75
2022/10/25 03:37:20;;;;;;;37.53;23.80;;;;;;;12.25;79.97;100578.63;126353;1086;104478;-75
2022/10/25 03:39:49;;;;;;;38.77;23.70;;;;;;;12.23;80.04;100571.61;126290;1086;102826;-77
2022/10/25 03:42:18;;;;;;;40.37;24.33;;;;;;;12.20;80.21;100571.52;126348;1086;102818;-76
2022/10/25 03:44:47;;;;;;;36.83;23.57;;;;;;;12.19;80.00;100577.61;126245;1085;104386;-75
2022/10/25 03:47:15;;;;;;;34.63;21.97;;;;;;;12.20;80.34;100578.48;126331;1086;104215;-75
2022/10/25 03:49:44;;;;;;;35.47;23.10;;;;;;;12.18;80.51;100578.44;126311;1086;104296;-76
2022/10/25 03:52:13;;;;;;;38.97;24.10;;;;;;;12.18;80.29;100583.70;126309;1086;104239;-76
2022/10/25 03:54:42;;;;;;;37.57;22.53;;;;;;;12.17;80.51;100576.68;126322;1086;104260;-76
2022/10/25 03:57:10;;;;;;;38.63;24.00;;;;;;;12.18;80.53;100572.30;126340;1086;104344;-76
2022/10/25 03:59:38;;;;;;;36.67;22.97;;;;;;;12.17;80.61;100571.42;126261;1086;102206;-75
2022/10/25 04:02:07;;;;;;;38.00;22.90;;;;;;;12.17;80.34;100571.42;126330;1086;103471;-75
2022/10/25 04:04:35;;;;;;;38.97;23.67;;;;;;;12.18;80.71;100572.30;126294;1086;104284;-75
2022/10/25 04:07:04;;;;;;;38.27;24.00;;;;;;;12.18;80.71;100562.66;126331;1086;104162;-75
2022/10/25 04:09:32;;;;;;;36.60;24.20;;;;;;;12.16;80.65;100555.59;126323;1086;102448;-75
2022/10/25 04:12:01;;;;;;;38.07;24.10;;;;;;;12.14;80.66;100550.28;125910;1089;104274;-75
2022/10/25 04:14:29;;;;;;;38.23;23.73;;;;;;;12.15;81.00;100545.91;126279;1086;104266;-75
2022/10/25 04:16:58;;;;;;;37.17;23.57;;;;;;;12.12;80.70;100537.92;126281;1086;103321;-75
2022/10/25 04:19:26;;;;;;;36.00;22.73;;;;;;;12.10;81.35;100535.24;126286;1086;104356;-75
2022/10/25 04:21:55;;;;;;;37.00;23.53;;;;;;;12.09;80.94;100535.20;126304;1086;104229;-75
2022/10/25 04:24:23;;;;;;;36.33;23.67;;;;;;;12.09;80.87;100530.84;126315;1086;104231;-75
2022/10/25 04:26:51;;;;;;;39.20;24.27;;;;;;;12.10;81.25;100516.83;126336;1085;104056;-74
2022/10/25 04:29:20;;;;;;;39.53;24.87;;;;;;;12.14;81.26;100523.98;126317;1086;102822;-75
2022/10/25 04:31:48;;;;;;;38.07;23.80;;;;;;;12.15;81.36;100517.84;126326;1086;103368;-75
2022/10/25 04:34:17;;;;;;;35.97;23.17;;;;;;;12.16;81.36;100516.13;126299;1086;102747;-75
2022/10/25 04:36:47;;;;;;;37.67;23.93;;;;;;;12.17;81.46;100520.52;126263;1086;108249;-75
2022/10/25 04:39:15;;;;;;;38.40;24.67;;;;;;;12.18;81.31;100519.69;126319;1086;104281;-75
2022/10/25 04:41:43;;;;;;;38.43;24.63;;;;;;;12.18;81.79;100510.05;126317;1086;104749;-76
2022/10/25 04:44:12;;;;;;;39.83;24.77;;;;;;;12.19;81.35;100511.84;126294;1086;101867;-75
2022/10/25 04:46:40;;;;;;;43.63;25.80;;;;;;;12.21;81.53;100509.25;126309;1086;103026;-76
2022/10/25 04:49:11;;;;;;;44.03;24.60;;;;;;;12.22;81.76;100504.04;126325;1086;104258;-75
2022/10/25 04:51:41;;;;;;;37.40;24.37;;;;;;;12.26;81.72;100493.61;126377;1086;104027;-76
2022/10/25 04:54:11;;;;;;;35.37;22.67;;;;;;;12.27;82.03;100500.66;126384;1086;104284;-76
2022/10/25 04:56:40;;;;;;;36.03;23.57;;;;;;;12.32;81.81;100501.67;126334;1086;103362;-74
2022/10/25 04:59:11;;;;;;;35.57;24.17;;;;;;;12.39;82.12;100495.75;125969;1087;103192;-76
2022/10/25 05:01:40;;;;;;;35.27;23.03;;;;;;;12.44;81.80;100498.52;126286;1086;104156;-77
2022/10/25 05:04:12;;;;;;;38.73;22.70;;;;;;;12.46;81.87;100510.84;125918;1089;104152;-77
2022/10/25 05:06:40;;;;;;;37.40;23.23;;;;;;;12.49;81.68;100512.69;126236;1089;104328;-77
2022/10/25 05:09:09;;;;;;;37.17;23.27;;;;;;;12.50;82.34;100510.09;126624;1086;102884;-77
2022/10/25 05:11:37;;;;;;;32.83;21.37;;;;;;;12.51;82.10;100509.25;126310;1086;102749;-77
2022/10/25 05:14:06;;;;;;;36.70;23.23;;;;;;;12.54;82.44;100509.34;126516;1086;104031;-77
2022/10/25 05:16:34;;;;;;;36.17;21.97;;;;;;;12.56;81.97;100517.28;126698;1086;102378;-76
2022/10/25 05:19:04;;;;;;;32.00;21.47;;;;;;;12.58;82.44;100516.45;126689;1086;104191;-77
2022/10/25 05:21:32;;;;;;;36.60;21.63;;;;;;;12.61;81.80;100518.29;126406;1086;104152;-76
2022/10/25 05:24:03;;;;;;;33.53;21.60;;;;;;;12.65;82.04;100525.41;125945;1089;104242;-76
2022/10/25 05:26:32;;;;;;;32.93;21.23;;;;;;;12.68;82.13;100529.88;125926;1089;102392;-76
2022/10/25 05:29:03;;;;;;;37.17;22.17;;;;;;;12.72;82.00;100537.02;126264;1086;104159;-77
2022/10/25 05:31:35;;;;;;;38.47;22.97;;;;;;;12.76;82.50;100531.87;126873;1086;104153;-76
2022/10/25 05:34:04;;;;;;;35.17;22.50;;;;;;;12.79;82.24;100533.68;126987;1086;104268;-76
2022/10/25 05:36:35;;;;;;;36.57;21.53;;;;;;;12.82;82.61;100531.13;126474;1086;102457;-75
2022/10/25 05:39:04;;;;;;;34.07;21.57;;;;;;;12.85;82.16;100528.58;127124;1089;104140;-75
2022/10/25 05:41:34;;;;;;;32.30;20.23;;;;;;;12.85;81.98;100525.95;126976;1089;104229;-75
2022/10/25 05:44:04;;;;;;;35.90;20.75;;;;;;;12.85;82.46;100531.22;126751;1089;104313;-75
2022/10/25 05:46:38;;;;;;;33.47;19.87;;;;;;;12.88;82.71;100533.05;126281;1086;104235;-75
2022/10/25 05:49:07;;;;;;;32.97;19.90;;;;;;;12.88;81.85;100543.59;126238;1086;104264;-76
2022/10/25 05:51:36;;;;;;;36.53;19.93;;;;;;;12.91;82.50;100559.47;125905;1089;104418;-76
2022/10/25 05:54:09;;;;;;;30.70;17.80;;;;;;;12.87;82.62;100542.70;125950;1089;104353;-76
2022/10/25 05:56:40;;;;;;;29.57;18.33;;;;;;;12.97;82.26;100543.84;125943;1089;104300;-75
2022/10/25 05:59:10;;;;;;;26.60;16.50;;;;;;;13.02;82.51;100543.95;125967;1089;104229;-76
2022/10/25 06:01:40;;;;;;;28.20;16.07;;;;;;;13.09;82.73;100545.91;126267;1086;104778;-76
2022/10/25 06:04:10;;;;;;;32.37;18.20;;;;;;;13.16;82.32;100558.38;126233;1086;104401;-77
2022/10/25 06:06:40;;;;;;;28.23;17.83;;;;;;;13.22;82.24;100561.16;126042;1088;104159;-76
2022/10/25 06:09:10;;;;;;;27.30;17.00;;;;;;;13.25;82.41;100555.09;126214;1086;104229;-76
2022/10/25 06:11:39;;;;;;;27.17;16.63;;;;;;;13.30;82.69;100558.73;125928;1089;101905;-76
2022/10/25 06:14:10;;;;;;;27.90;17.60;;;;;;;13.37;82.74;100567.71;126281;1086;104194;-76
2022/10/25 06:16:39;;;;;;;29.07;17.13;;;;;;;13.42;82.35;100566.98;126197;1086;104698;-77
2022/10/25 06:19:17;;;;;;;30.37;17.63;;;;;;;13.48;82.40;100558.35;126289;1086;104162;-76
2022/10/25 06:21:46;;;;;;;31.23;17.20;;;;;;;13.54;82.74;100554.95;126252;1086;104234;-76
2022/10/25 06:24:29;;;;;;;28.10;17.17;;;;;;;13.58;81.86;100560.34;126288;1086;104225;-77
2022/10/25 06:26:58;;;;;;;27.43;17.20;;;;;;;13.60;82.24;100566.56;126276;1086;103173;-76
2022/10/25 06:29:30;;;;;;;32.73;17.17;;;;;;;13.62;81.73;100558.69;126059;1089;104324;-76
2022/10/25 06:32:00;;;;;;;28.67;16.80;;;;;;;13.66;81.59;100561.44;126071;1088;104226;-76
2022/10/25 06:34:31;;;;;;;27.57;17.20;;;;;;;13.71;81.52;100543.05;126367;1086;104184;-75
2022/10/25 06:37:01;;;;;;;29.77;16.97;;;;;;;13.78;81.86;100541.48;125928;1089;105062;-76
2022/10/25 06:39:33;;;;;;;24.70;15.20;;;;;;;13.83;82.13;100531.92;126967;1089;102459;-76
2022/10/25 06:42:05;;;;;;;26.53;15.90;;;;;;;13.92;81.45;100536.52;126315;1086;104312;-76
2022/10/25 06:44:33;;;;;;;25.23;16.10;;;;;;;13.98;81.84;100536.66;126277;1085;104168;-75
2022/10/25 06:47:02;;;;;;;30.40;16.87;;;;;;;14.03;81.61;100533.25;126262;1086;104232;-76
2022/10/25 06:49:32;;;;;;;29.07;16.80;;;;;;;14.10;82.04;100534.30;126418;1086;104236;-75
2022/10/25 06:52:01;;;;;;;30.80;16.50;;;;;;;14.10;81.30;100517.55;126316;1086;104263;-75
2022/10/25 06:54:31;;;;;;;25.43;15.33;;;;;;;14.15;81.93;100524.72;126019;1090;104229;-75
2022/10/25 06:57:00;;;;;;;24.90;14.97;;;;;;;14.16;81.33;100530.88;126101;1089;102217;-75
2022/10/25 06:59:33;;;;;;;26.47;14.80;;;;;;;14.13;81.21;100528.17;126053;1086;104311;-75
2022/10/25 07:02:06;;;;;;;25.43;15.87;;;;;;;14.11;81.82;100516.70;126374;1086;101932;-75
2022/10/25 07:04:35;;;;;;;28.13;15.57;;;;;;;14.17;81.62;100519.48;126357;1086;103571;-75
2022/10/25 07:07:04;;;;;;;32.57;17.10;;;;;;;14.22;81.22;100519.58;126032;1089;104265;-76
2022/10/25 07:09:33;;;;;;;28.90;17.27;;;;;;;14.27;81.35;100518.80;126426;1086;104150;-75
2022/10/25 07:19:25;;;;;;;31.33;16.53;;;;;;;14.52;81.08;100519.30;125934;1089;102988;-76
2022/10/25 07:21:56;;;;;;;27.73;16.43;;;;;;;14.59;80.75;100522.97;125954;1086;104264;-76
2022/10/25 07:24:29;;;;;;;27.13;15.90;;;;;;;14.68;80.98;100521.42;126018;1089;104220;-76
2022/10/25 07:27:20;;;;;;;27.57;15.77;;;;;;;14.77;81.31;100520.69;125949;1089;103334;-75
2022/10/25 07:30:00;;;;;;;25.40;15.80;;;;;;;14.84;81.09;100516.44;127625;1085;104189;-75
2022/10/25 07:32:29;;;;;;;27.27;15.67;;;;;;;14.91;80.13;100511.30;126336;1086;104173;-75
2022/10/25 07:34:59;;;;;;;26.13;15.13;;;;;;;14.98;80.32;100520.21;126281;1086;104354;-76
2022/10/25 07:40:36;;;;;;;28.07;15.47;;;;;;;15.18;80.04;100519.69;126466;1086;104197;-75
2022/10/25 07:43:35;;;;;;;25.17;15.03;;;;;;;15.34;80.54;100518.19;126339;1086;102818;-75
2022/10/25 07:46:06;;;;;;;26.87;14.67;;;;;;;15.46;80.10;100513.98;126304;1086;104207;-76
2022/10/25 07:48:35;;;;;;;24.43;14.40;;;;;;;15.52;80.21;100507.91;126291;1086;104165;-76
2022/10/25 07:51:08;;;;;;;24.20;13.90;;;;;;;15.54;79.43;100515.86;125965;1089;104173;-73
2022/10/25 07:53:37;;;;;;;23.60;13.38;;;;;;;15.55;79.36;100499.11;126229;1086;104210;-72
2022/10/25 07:56:11;;;;;;;23.00;13.55;;;;;;;15.60;79.67;100500.97;126274;1086;104219;-72
2022/10/25 07:58:40;;;;;;;22.05;13.30;;;;;;;15.61;80.09;100494.83;126311;1086;104186;-73
2022/10/25 08:01:10;;;;;;;24.60;13.60;;;;;;;15.66;79.98;100491.34;126053;1089;103674;-73
2022/10/25 08:03:40;;;;;;;23.40;13.13;;;;;;;15.71;79.67;100487.91;126363;1086;104164;-73
2022/10/25 08:06:09;;;;;;;24.17;13.43;;;;;;;15.80;79.69;100472.20;126108;1090;103340;-72
2022/10/25 08:08:38;;;;;;;24.77;13.40;;;;;;;15.97;79.21;100471.52;126486;1086;104256;-73
2022/10/25 08:11:07;;;;;;;27.23;14.13;;;;;;;16.10;78.64;100473.47;127103;1089;102515;-73
2022/10/25 08:13:37;;;;;;;28.60;13.30;;;;;;;16.18;78.61;100466.50;126384;1086;104401;-74
2022/10/25 08:16:09;;;;;;;25.73;12.50;;;;;;;16.21;78.32;100455.07;126082;1089;102303;-75
2022/10/25 08:18:44;;;;;;;27.73;13.33;;;;;;;16.25;78.74;100459.55;126368;1084;104312;-75
2022/10/25 08:21:15;;;;;;;25.10;12.20;;;;;;;16.33;78.56;100462.25;126360;1086;104299;-74
2022/10/25 08:23:45;;;;;;;20.85;11.55;;;;;;;16.39;78.22;100450.85;126084;1089;104309;-75
2022/10/25 08:26:15;;;;;;;22.87;12.17;;;;;;;16.48;78.22;100467.72;126448;1086;104363;-75
2022/10/25 08:28:48;;;;;;;21.97;12.50;;;;;;;16.56;77.92;100464.28;126367;1086;101803;-75
2022/10/25 08:31:18;;;;;;;22.33;11.80;;;;;;;16.63;77.67;100466.13;126322;1086;103322;-75
2022/10/25 08:33:49;;;;;;;22.00;12.23;;;;;;;16.69;77.20;100461.78;126000;1089;102252;-75
2022/10/25 08:36:17;;;;;;;25.17;11.37;;;;;;;16.76;77.35;100457.42;125990;1089;104354;-73
2022/10/25 08:38:47;;;;;;;23.23;12.00;;;;;;;16.84;77.52;100460.14;126185;1086;104162;-75
2022/10/25 08:41:23;;;;;;;28.77;13.13;;;;;;;16.84;77.19;100445.16;125934;1089;104238;-75
2022/10/25 08:44:16;;;;;;;24.57;12.67;;;;;;;16.97;76.79;100458.52;126220;1086;104756;-74
2022/10/25 08:46:53;;;;;;;23.67;11.80;;;;;;;16.98;76.85;100460.30;125855;1086;104171;-75
2022/10/25 08:49:28;;;;;;;20.00;11.63;;;;;;;17.03;76.41;100454.18;126270;1086;104401;-74
2022/10/25 08:51:59;;;;;;;20.10;11.37;;;;;;;17.11;76.35;100446.30;125885;1089;104643;-74
2022/10/25 08:54:32;;;;;;;22.07;12.27;;;;;;;17.18;76.17;100449.88;126257;1086;104156;-75
2022/10/25 08:57:14;;;;;;;21.10;12.37;;;;;;;17.23;76.48;100448.13;125843;1090;102592;-75
2022/10/25 08:59:48;;;;;;;21.23;11.83;;;;;;;17.30;75.85;100441.14;127489;1085;104366;-75
2022/10/25 09:02:27;;;;;;;22.82;11.53;;;;;;;17.37;75.58;100445.58;126245;1086;104280;-75
2022/10/25 09:04:55;;;;;;;22.50;11.30;;;;;;;17.40;75.47;100445.61;125918;1089;104219;-75
2022/10/25 09:07:49;;;;;;;20.37;11.20;;;;;;;17.46;75.17;100448.30;126300;1086;104165;-75
2022/10/25 09:10:28;;;;;;;22.90;11.93;;;;;;;17.49;75.43;100445.67;126000;1089;104173;-75
2022/10/25 09:13:05;;;;;;;21.43;12.17;;;;;;;17.56;75.03;100444.84;125954;1089;102466;-74
2022/10/25 09:15:50;;;;;;;19.97;11.53;;;;;;;17.65;74.94;100445.77;126226;1086;118940;-73
2022/10/25 09:18:22;;;;;;;24.37;10.60;;;;;;;17.74;74.96;100445.82;126230;1085;104263;-74
2022/10/25 09:20:51;;;;;;;20.83;10.90;;;;;;;17.79;74.03;100433.45;126257;1085;104338;-74
2022/10/25 09:23:28;;;;;;;21.97;11.33;;;;;;;17.85;74.03;100428.17;125936;1087;102801;-74
2022/10/25 09:26:03;;;;;;;20.93;10.87;;;;;;;17.91;73.64;100428.23;126250;1086;102317;-74
2022/10/25 09:28:47;;;;;;;22.97;10.50;;;;;;;18.00;73.29;100423.84;126247;1086;104231;-74
2022/10/25 09:31:17;;;;;;;;;;;;;;;18.08;72.37;100419.47;126286;1086;102834;-75
2022/10/25 09:33:50;;;;;;;21.50;10.93;;;;;;;18.12;73.00;100411.52;125958;1089;102374;-73
2022/10/25 09:36:27;;;;;;;20.77;10.77;;;;;;;18.16;73.24;100407.09;126910;1085;104685;-74
2022/10/25 09:39:01;;;;;;;22.50;10.63;;;;;;;18.11;72.99;100399.11;125971;1089;101815;-74
2022/10/25 09:41:39;;;;;;;23.40;10.83;;;;;;;18.09;72.18;100397.33;125985;1089;104156;-75
2022/10/25 09:44:15;;;;;;;19.10;10.63;;;;;;;18.04;72.78;100396.44;126186;1086;104308;-76
2022/10/25 09:46:47;;;;;;;23.73;10.07;;;;;;;17.98;71.99;100402.59;126274;1086;104166;-75
2022/10/25 09:49:24;;;;;;;20.50;10.80;;;;;;;18.02;72.22;100390.24;125897;1088;104257;-75
2022/10/25 09:52:09;;;;;;;21.30;9.67;;;;;;;18.08;72.12;100392.92;126313;1086;104229;-75
2022/10/25 09:54:44;;;;;;;21.20;9.70;;;;;;;18.14;71.58;100391.16;125930;1089;104226;-75
2022/10/25 09:57:16;;;;;;;20.40;9.60;;;;;;;18.24;71.69;100393.84;127537;1085;101947;-76
2022/10/25 09:59:50;;;;;;;20.30;9.27;;;;;;;18.36;71.46;100393.00;126231;1086;102290;-76
2022/10/25 10:02:23;;;;;;;18.93;9.83;;;;;;;18.40;71.39;100386.78;126236;1086;104203;-76
2022/10/25 10:04:53;;;;;;;20.17;9.80;;;;;;;18.50;71.39;100396.56;126018;1086;103022;-75
2022/10/25 10:07:25;;;;;;;27.50;10.57;;;;;;;18.53;71.09;100401.88;125967;1089;104292;-74
2022/10/25 10:09:59;;;;;;;18.97;9.20;;;;;;;18.57;70.85;100405.41;126288;1086;102822;-74
2022/10/25 10:12:48;;;;;;;20.43;10.30;;;;;;;18.55;70.02;100394.78;126348;1086;104254;-75
2022/10/25 10:15:23;;;;;;;21.13;9.40;;;;;;;18.56;70.10;100388.59;126340;1086;104260;-75
2022/10/25 10:18:35;;;;;;;18.10;8.80;;;;;;;18.57;70.31;100392.13;126028;1089;104351;-75
2022/10/25 10:21:12;;;;;;;19.90;8.97;;;;;;;18.56;69.55;100383.28;125862;1089;103001;-74
2022/10/25 10:23:50;;;;;;;18.77;9.17;;;;;;;18.58;70.17;100378.84;125881;1086;102472;-75
2022/10/25 10:26:26;;;;;;;19.33;8.47;;;;;;;18.57;69.55;100381.50;125879;1086;104260;-75
2022/10/25 10:29:04;;;;;;;20.60;9.07;;;;;;;18.55;69.50;100376.19;126281;1086;104234;-75
2022/10/25 10:31:38;;;;;;;16.60;8.37;;;;;;;18.55;69.31;100375.31;126331;1086;104238;-75
2022/10/25 10:34:25;;;;;;;24.57;9.40;;;;;;;18.56;69.04;100375.31;126258;1086;102890;-75
2022/10/25 10:37:12;;;;;;;18.67;8.33;;;;;;;18.59;69.27;100374.41;126180;1086;104156;-75
2022/10/25 10:39:50;;;;;;;18.20;7.87;;;;;;;18.60;68.83;100361.12;126301;1086;102956;-75
2022/10/25 10:42:20;;;;;;;15.23;8.03;;;;;;;18.65;68.69;100347.84;127319;1086;104240;-75
2022/10/25 10:45:17;;;;;;;18.23;7.60;;;;;;;18.67;68.76;100346.96;126281;1086;102241;-74
2022/10/25 10:47:56;;;;;;;19.77;8.17;;;;;;;18.71;68.51;100341.65;126252;1086;118536;-75
2022/10/25 10:50:31;;;;;;;17.03;8.13;;;;;;;18.72;67.94;100333.67;126303;1086;102511;-76
2022/10/25 10:53:02;;;;;;;19.97;8.50;;;;;;;18.76;67.99;100319.51;126339;1086;104152;-76
2022/10/25 10:55:36;;;;;;;20.80;8.83;;;;;;;18.78;67.91;100325.70;126107;1090;104250;-75
2022/10/25 10:58:14;;;;;;;20.23;9.23;;;;;;;18.76;68.47;100326.58;126354;1086;103461;-74
2022/10/25 11:01:06;;;;;;;18.80;9.87;;;;;;;18.72;67.74;100324.83;126415;1086;104201;-74
2022/10/25 11:03:47;;;;;;;19.03;9.23;;;;;;;18.68;68.28;100311.53;126047;1090;104162;-74
2022/10/25 11:06:25;;;;;;;22.73;9.53;;;;;;;18.67;67.45;100316.86;126034;1089;104318;-74
2022/10/25 11:09:14;;;;;;;21.43;9.80;;;;;;;18.64;67.97;100314.20;126391;1086;103451;-73
2022/10/25 11:11:44;;;;;;;22.03;9.70;;;;;;;18.65;68.03;100297.34;126391;1086;104263;-75
2022/10/25 11:14:14;;;;;;;24.83;9.63;;;;;;;18.69;67.37;100299.13;126385;1086;104165;-74
2022/10/25 11:16:51;;;;;;;23.73;9.57;;;;;;;18.71;66.98;100294.68;125988;1086;104386;-74
2022/10/25 11:19:30;;;;;;;20.20;9.67;;;;;;;18.75;67.79;100285.83;126367;1086;102006;-74
2022/10/25 11:22:09;;;;;;;23.60;10.00;;;;;;;18.82;67.38;100292.02;126325;1085;104284;-74
2022/10/25 11:24:45;;;;;;;21.93;9.57;;;;;;;18.90;66.73;100295.61;126370;1086;101989;-74
2022/10/25 11:27:20;;;;;;;20.70;9.70;;;;;;;18.98;67.55;100298.22;126269;1085;104332;-74
2022/10/25 11:30:09;;;;;;;20.43;9.13;;;;;;;19.03;67.42;100294.67;125993;1086;102194;-73